createdAt,value
2022-09-22T00:01:25.492Z,5.67
2022-09-22T00:03:57.451Z,5.93
2022-09-22T00:06:27.859Z,5.80
2022-09-22T00:08:57.652Z,6.40
2022-09-22T00:11:29.329Z,5.70
2022-09-22T00:14:08.183Z,7.13
2022-09-22T00:16:39.580Z,7.17
2022-09-22T00:19:12.939Z,7.07
2022-09-22T00:21:42.539Z,7.07
2022-09-22T00:24:09.597Z,7.53
2022-09-22T00:26:38.272Z,7.73
2022-09-22T00:29:09.939Z,8.53
2022-09-22T00:31:41.708Z,8.20
2022-09-22T00:34:14.433Z,7.93
2022-09-22T00:36:41.494Z,8.17
2022-09-22T00:39:08.733Z,7.70
2022-09-22T00:41:40.762Z,7.47
2022-09-22T00:44:34.288Z,6.90
2022-09-22T00:47:11.798Z,7.07
2022-09-22T00:49:45.010Z,6.80
2022-09-22T00:52:22.307Z,7.50
2022-09-22T00:54:51.813Z,7.57
2022-09-22T00:57:24.096Z,7.70
2022-09-22T00:59:53.054Z,8.67
2022-09-22T01:02:21.546Z,8.10
2022-09-22T01:04:52.701Z,8.40
2022-09-22T01:07:25.306Z,9.30
2022-09-22T01:09:53.239Z,9.90
2022-09-22T01:12:20.525Z,9.43
2022-09-22T01:14:50.684Z,9.80
2022-09-22T01:17:30.430Z,9.57
2022-09-22T01:20:19.858Z,10.40
2022-09-22T01:23:26.508Z,11.10
2022-09-22T01:26:11.921Z,11.57
2022-09-22T01:29:07.807Z,10.90
2022-09-22T01:31:50.512Z,10.07
2022-09-22T01:34:26.381Z,9.83
2022-09-22T01:37:15.320Z,10.70
2022-09-22T01:39:55.898Z,9.93
2022-09-22T01:42:33.405Z,9.97
2022-09-22T01:45:18.217Z,10.03
2022-09-22T01:47:55.694Z,10.20
2022-09-22T01:50:31.268Z,10.43
2022-09-22T01:53:02.045Z,9.93
2022-09-22T01:55:33.828Z,9.20
2022-09-22T01:58:02.885Z,9.30
2022-09-22T02:00:30.755Z,8.50
2022-09-22T02:03:01.570Z,9.33
2022-09-22T02:05:39.999Z,9.17
2022-09-22T02:08:23.580Z,9.13
2022-09-22T02:10:53.744Z,9.60
2022-09-22T02:13:21.097Z,9.73
2022-09-22T02:16:03.226Z,9.27
2022-09-22T02:18:45.721Z,9.70
2022-09-22T02:21:13.887Z,9.83
2022-09-22T02:23:41.589Z,8.23
2022-09-22T02:26:09.596Z,8.80
2022-09-22T02:28:40.232Z,7.70
2022-09-22T02:31:25.339Z,8.10
2022-09-22T02:33:52.698Z,7.90
2022-09-22T02:36:35.813Z,7.60
2022-09-22T02:39:10.374Z,7.90
2022-09-22T02:42:25.001Z,7.67
2022-09-22T02:45:18.843Z,7.70
2022-09-22T02:47:57.534Z,7.47
2022-09-22T02:50:26.776Z,7.47
2022-09-22T02:52:58.968Z,8.23
2022-09-22T02:55:25.862Z,8.57
2022-09-22T02:57:52.883Z,8.80
2022-09-22T03:00:19.925Z,9.40
2022-09-22T03:02:47.004Z,8.87
2022-09-22T03:05:14.504Z,8.47
2022-09-22T03:07:41.513Z,7.73
2022-09-22T03:10:09.349Z,8.60
2022-09-22T03:12:36.270Z,7.90
2022-09-22T03:15:03.294Z,8.17
2022-09-22T03:17:32.320Z,7.53
2022-09-22T03:19:59.267Z,8.27
2022-09-22T03:22:26.101Z,8.07
2022-09-22T03:24:53.063Z,12.03
2022-09-22T03:27:19.981Z,8.80
2022-09-22T03:29:47.309Z,8.90
2022-09-22T03:32:14.308Z,8.70
2022-09-22T03:34:41.300Z,9.27
2022-09-22T03:37:08.416Z,9.63
2022-09-22T03:39:35.424Z,8.80
2022-09-22T03:42:02.331Z,7.07
2022-09-22T03:44:29.298Z,8.13
2022-09-22T03:46:56.589Z,8.90
2022-09-22T03:49:24.910Z,10.40
2022-09-22T03:51:57.892Z,9.47
2022-09-22T03:54:39.892Z,9.73
2022-09-22T03:57:06.837Z,9.63
2022-09-22T03:59:33.954Z,9.03
2022-09-22T04:02:02.712Z,9.47
2022-09-22T04:04:29.797Z,9.80
2022-09-22T04:06:56.771Z,9.47
2022-09-22T04:09:23.717Z,9.60
2022-09-22T04:11:50.632Z,14.50
2022-09-22T04:14:25.016Z,9.60
2022-09-22T04:17:30.454Z,9.07
2022-09-22T04:19:57.625Z,8.93
2022-09-22T04:22:24.561Z,11.20
2022-09-22T04:24:51.594Z,10.33
2022-09-22T04:27:20.413Z,9.63
2022-09-22T04:29:48.463Z,10.00
2022-09-22T04:32:16.831Z,9.67
2022-09-22T04:34:44.233Z,9.67
2022-09-22T04:37:31.030Z,9.67
2022-09-22T04:39:59.890Z,10.40
2022-09-22T04:42:27.373Z,10.23
2022-09-22T04:45:24.060Z,10.20
2022-09-22T04:47:54.145Z,10.67
2022-09-22T04:50:22.808Z,11.53
2022-09-22T04:52:52.458Z,15.60
2022-09-22T04:55:21.652Z,10.10
2022-09-22T04:57:53.669Z,10.43
2022-09-22T05:00:22.809Z,9.77
2022-09-22T05:02:49.843Z,14.67
2022-09-22T05:05:17.753Z,11.73
2022-09-22T05:07:47.000Z,11.07
2022-09-22T05:10:15.540Z,11.83
2022-09-22T05:12:43.898Z,11.80
2022-09-22T05:15:14.280Z,11.33
2022-09-22T05:17:56.794Z,11.83
2022-09-22T05:20:23.915Z,9.13
2022-09-22T05:22:52.665Z,10.17
2022-09-22T05:25:20.055Z,10.87
2022-09-22T05:27:55.382Z,9.60
2022-09-22T05:30:24.919Z,9.20
2022-09-22T05:32:52.812Z,8.73
2022-09-22T05:35:23.694Z,8.43
2022-09-22T05:37:52.397Z,10.03
2022-09-22T05:40:20.146Z,13.07
2022-09-22T05:42:49.151Z,16.53
2022-09-22T05:45:22.814Z,10.63
2022-09-22T05:47:50.370Z,13.57
2022-09-22T05:50:20.430Z,11.10
2022-09-22T05:52:47.698Z,10.17
2022-09-22T05:55:15.341Z,10.10
2022-09-22T05:57:43.698Z,8.27
2022-09-22T06:00:13.202Z,7.90
2022-09-22T06:02:40.879Z,7.13
2022-09-22T06:05:08.144Z,7.20
2022-09-22T06:07:35.053Z,6.60
2022-09-22T06:10:01.985Z,6.20
2022-09-22T06:12:28.909Z,6.57
2022-09-22T06:14:56.789Z,6.17
2022-09-22T06:17:23.944Z,6.30
2022-09-22T06:19:51.344Z,6.43
2022-09-22T06:22:18.913Z,6.00
2022-09-22T06:24:45.883Z,6.50
2022-09-22T06:27:13.216Z,6.77
2022-09-22T06:29:41.621Z,6.53
2022-09-22T06:32:10.278Z,6.63
2022-09-22T06:34:38.482Z,6.70
2022-09-22T06:37:08.912Z,6.97
2022-09-22T06:39:39.212Z,6.17
2022-09-22T06:42:06.779Z,5.83
2022-09-22T06:44:33.845Z,5.27
2022-09-22T06:47:05.529Z,4.80
2022-09-22T06:49:32.598Z,4.73
2022-09-22T06:51:59.861Z,4.80
2022-09-22T06:54:26.919Z,4.87
2022-09-22T06:56:54.023Z,5.07
2022-09-22T06:59:21.383Z,4.40
2022-09-22T07:01:48.579Z,4.43
2022-09-22T07:04:16.712Z,4.47
2022-09-22T07:06:44.200Z,4.40
2022-09-22T07:09:12.504Z,4.77
2022-09-22T07:11:40.460Z,4.60
2022-09-22T07:14:08.891Z,4.40
2022-09-22T07:16:36.541Z,4.25
2022-09-22T07:19:05.154Z,5.00
2022-09-22T07:21:38.317Z,4.68
2022-09-22T07:24:07.560Z,4.63
2022-09-22T07:26:37.046Z,4.20
2022-09-22T07:29:07.935Z,4.65
2022-09-22T07:31:36.873Z,4.38
2022-09-22T07:34:04.506Z,4.40
2022-09-22T07:36:33.028Z,4.28
2022-09-22T07:39:08.464Z,4.50
2022-09-22T07:41:41.875Z,4.70
2022-09-22T07:44:29.233Z,4.82
2022-09-22T07:46:56.792Z,4.57
2022-09-22T07:49:23.673Z,4.65
2022-09-22T07:51:55.161Z,4.72
2022-09-22T07:54:22.975Z,4.70
2022-09-22T07:56:52.085Z,4.43
2022-09-22T07:59:19.273Z,4.45
2022-09-22T08:06:49.004Z,4.50
2022-09-22T08:09:15.881Z,4.23
2022-09-22T08:11:46.247Z,4.00
2022-09-22T08:14:13.284Z,4.30
2022-09-22T08:16:41.373Z,4.67
2022-09-22T08:19:12.530Z,4.57
2022-09-22T08:21:48.772Z,3.90
2022-09-22T08:24:22.507Z,4.63
2022-09-22T08:26:52.545Z,4.57
2022-09-22T08:29:20.447Z,4.50
2022-09-22T08:31:47.764Z,4.37
2022-09-22T08:34:17.010Z,4.50
2022-09-22T08:36:47.416Z,4.63
2022-09-22T08:39:16.125Z,4.87
2022-09-22T08:42:06.003Z,4.30
2022-09-22T08:44:39.745Z,3.57
2022-09-22T08:47:06.886Z,4.33
2022-09-22T08:50:10.173Z,4.40
2022-09-22T08:52:49.061Z,4.10
2022-09-22T08:55:22.125Z,4.00
2022-09-22T08:58:12.976Z,4.00
2022-09-22T09:00:49.334Z,3.93
2022-09-22T09:03:25.556Z,4.00
2022-09-22T09:06:08.903Z,3.97
2022-09-22T09:09:09.796Z,4.20
2022-09-22T09:11:46.096Z,3.87
2022-09-22T09:14:25.410Z,3.93
2022-09-22T09:16:58.457Z,3.90
2022-09-22T09:19:32.683Z,3.90
2022-09-22T09:22:06.115Z,3.70
2022-09-22T09:27:33.149Z,3.93
2022-09-22T09:30:18.169Z,3.73
2022-09-22T09:32:54.378Z,3.80
2022-09-22T09:35:46.236Z,3.53
2022-09-22T09:38:17.437Z,4.10
2022-09-22T09:40:54.514Z,3.30
2022-09-22T09:43:28.067Z,3.47
2022-09-22T09:46:27.250Z,3.30
2022-09-22T09:49:19.840Z,3.10
2022-09-22T09:51:49.773Z,3.60
2022-09-22T09:54:19.069Z,3.00
2022-09-22T09:57:08.066Z,3.20
2022-09-22T09:59:56.334Z,3.00
2022-09-22T10:02:35.832Z,3.30
2022-09-22T10:05:07.795Z,3.17
2022-09-22T10:07:42.320Z,3.13
2022-09-22T10:10:35.958Z,2.60
2022-09-22T10:13:08.541Z,2.83
2022-09-22T10:15:38.381Z,2.93
2022-09-22T10:18:36.182Z,2.80
2022-09-22T10:21:15.473Z,2.77
2022-09-22T10:23:54.330Z,2.63
2022-09-22T10:26:30.769Z,2.57
2022-09-22T10:29:12.825Z,2.43
2022-09-22T10:32:05.514Z,2.50
2022-09-22T10:34:36.413Z,2.70
2022-09-22T10:37:10.552Z,2.40
2022-09-22T10:39:43.796Z,2.40
2022-09-22T10:42:38.113Z,2.50
2022-09-22T10:45:15.556Z,2.57
2022-09-22T10:48:07.659Z,2.30
2022-09-22T10:50:47.674Z,2.40
2022-09-22T10:53:21.894Z,2.40
2022-09-22T10:56:10.181Z,2.37
2022-09-22T10:58:37.085Z,2.37
2022-09-22T11:01:28.102Z,2.03
2022-09-22T11:04:18.150Z,2.40
2022-09-22T11:07:31.429Z,2.40
2022-09-22T11:10:47.164Z,3.30
2022-09-22T11:13:25.579Z,2.87
2022-09-22T11:16:24.196Z,3.80
2022-09-22T11:19:13.288Z,2.90
2022-09-22T11:22:09.758Z,3.30
2022-09-22T11:24:48.681Z,3.27
2022-09-22T11:27:38.486Z,2.73
2022-09-22T11:30:21.807Z,3.90
2022-09-22T11:33:15.408Z,3.40
2022-09-22T11:36:01.276Z,2.70
2022-09-22T11:39:00.782Z,2.50
2022-09-22T11:41:31.728Z,3.67
2022-09-22T11:44:23.414Z,3.73
2022-09-22T11:47:04.603Z,2.90
2022-09-22T11:49:42.985Z,3.47
2022-09-22T11:52:43.382Z,3.43
2022-09-22T11:55:25.730Z,2.80
2022-09-22T11:57:59.774Z,3.60
2022-09-22T12:00:35.134Z,3.40
2022-09-22T12:03:07.660Z,3.30
2022-09-22T12:05:41.357Z,3.80
2022-09-22T12:08:26.189Z,3.17
2022-09-22T12:10:54.362Z,3.30
2022-09-22T12:13:28.953Z,3.47
2022-09-22T12:16:18.836Z,3.37
2022-09-22T12:19:13.537Z,3.30
2022-09-22T12:21:59.347Z,3.90
2022-09-22T12:24:26.765Z,4.00
2022-09-22T12:26:54.143Z,4.57
2022-09-22T12:29:29.273Z,3.87
2022-09-22T12:31:59.405Z,3.90
2022-09-22T12:34:33.668Z,3.73
2022-09-22T12:37:23.105Z,3.77
2022-09-22T12:39:50.715Z,4.20
2022-09-22T12:42:36.731Z,3.73
2022-09-22T12:45:19.086Z,3.53
2022-09-22T12:47:51.658Z,3.80
2022-09-22T12:50:24.493Z,4.00
2022-09-22T12:52:51.386Z,3.87
2022-09-22T12:55:20.302Z,3.73
2022-09-22T12:57:50.555Z,3.50
2022-09-22T13:00:34.497Z,3.23
2022-09-22T13:03:22.709Z,3.50
2022-09-22T13:05:50.320Z,3.30
2022-09-22T13:08:21.834Z,3.60
2022-09-22T13:10:57.805Z,3.60
2022-09-22T13:13:42.764Z,3.70
2022-09-22T13:16:15.702Z,3.93
2022-09-22T13:18:43.821Z,3.50
2022-09-22T13:21:13.844Z,3.63
2022-09-22T13:23:57.786Z,2.70
2022-09-22T13:26:41.968Z,2.93
2022-09-22T13:29:22.742Z,3.40
2022-09-22T16:05:37.125Z,1.90
2022-09-22T16:08:04.302Z,2.20
2022-09-22T16:10:31.238Z,2.00
2022-09-22T16:12:59.461Z,1.63
2022-09-22T16:15:26.445Z,1.90
2022-09-22T16:17:53.363Z,1.80
2022-09-22T16:20:20.253Z,1.73
2022-09-22T16:22:47.096Z,1.43
2022-09-22T16:25:15.561Z,1.50
2022-09-22T16:27:43.176Z,1.50
2022-09-22T16:30:10.529Z,1.47
2022-09-22T16:32:37.520Z,1.73
2022-09-22T16:35:05.060Z,1.90
2022-09-22T16:37:32.092Z,1.70
2022-09-22T16:39:59.041Z,1.80
2022-09-22T16:42:25.984Z,1.50
2022-09-22T16:44:52.898Z,2.00
2022-09-22T16:47:23.062Z,1.77
2022-09-22T16:49:58.213Z,1.73
2022-09-22T16:52:25.687Z,1.93
2022-09-22T16:54:52.601Z,2.00
2022-09-22T16:57:19.510Z,1.90
2022-09-22T16:59:46.369Z,2.00
2022-09-22T17:02:13.509Z,1.87
2022-09-22T17:04:40.590Z,2.10
2022-09-22T17:07:07.545Z,2.17
2022-09-22T17:09:34.743Z,2.40
2022-09-22T17:12:08.333Z,3.30
2022-09-22T17:14:37.333Z,2.23
2022-09-22T17:17:08.946Z,2.17
2022-09-22T17:19:36.055Z,2.10
2022-09-22T17:22:03.082Z,2.20
2022-09-22T17:24:30.591Z,2.50
2022-09-22T17:26:58.987Z,2.40
2022-09-22T17:29:28.776Z,2.20
2022-09-22T17:32:04.494Z,2.30
2022-09-22T17:34:33.035Z,2.37
2022-09-22T17:37:00.914Z,1.77
2022-09-22T17:39:29.481Z,1.80
2022-09-22T17:41:56.486Z,2.33
2022-09-22T17:44:29.297Z,2.00
2022-09-22T17:47:15.199Z,2.30
2022-09-22T17:50:00.639Z,2.50
2022-09-22T17:52:40.129Z,2.43
2022-09-22T17:55:20.875Z,2.13
2022-09-22T17:57:48.303Z,2.30
2022-09-22T18:00:21.322Z,2.73
2022-09-22T18:02:51.169Z,3.67
2022-09-22T18:05:20.822Z,3.23
2022-09-22T18:07:52.998Z,3.33
2022-09-22T18:10:30.480Z,3.30
2022-09-22T18:12:57.390Z,3.00
2022-09-22T18:15:26.795Z,2.97
2022-09-22T18:17:55.760Z,2.80
2022-09-22T18:20:23.624Z,2.60
2022-09-22T18:22:50.648Z,2.53
2022-09-22T18:25:19.757Z,2.10
2022-09-22T18:27:48.740Z,2.27
2022-09-22T18:30:16.654Z,2.33
2022-09-22T18:32:43.665Z,2.90
2022-09-22T18:35:13.058Z,2.40
2022-09-22T18:37:40.786Z,3.70
2022-09-22T18:40:08.956Z,2.90
2022-09-22T18:42:36.986Z,3.30
2022-09-22T18:45:04.471Z,2.93
2022-09-22T18:47:31.425Z,2.73
2022-09-22T18:49:58.805Z,2.70
2022-09-22T18:52:25.808Z,2.93
2022-09-22T18:54:54.205Z,2.53
2022-09-22T18:57:24.634Z,2.90
2022-09-22T18:59:51.650Z,2.70
2022-09-22T19:02:22.822Z,3.20
2022-09-22T19:04:51.875Z,3.30
2022-09-22T19:07:41.531Z,2.70
2022-09-22T19:10:15.096Z,2.80
2022-09-22T19:12:43.086Z,2.70
2022-09-22T19:15:13.601Z,3.07
2022-09-22T19:17:44.380Z,2.77
2022-09-22T19:20:17.496Z,2.80
2022-09-22T19:22:45.194Z,3.00
2022-09-22T19:25:12.958Z,3.00
2022-09-22T19:27:40.156Z,2.87
2022-09-22T19:30:09.040Z,3.07
2022-09-22T19:32:36.269Z,3.07
2022-09-22T19:35:04.254Z,3.23
2022-09-22T19:37:31.714Z,3.90
2022-09-22T19:39:58.661Z,3.20
2022-09-22T19:42:25.830Z,3.17
2022-09-22T19:44:53.045Z,3.23
2022-09-22T19:47:21.232Z,3.27
2022-09-22T19:49:48.201Z,2.83
2022-09-22T19:52:15.248Z,3.23
2022-09-22T19:54:42.529Z,3.70
2022-09-22T19:57:09.638Z,3.80
2022-09-22T19:59:36.702Z,4.00
2022-09-22T20:02:06.087Z,5.27
2022-09-22T20:04:34.798Z,3.80
2022-09-22T20:07:03.149Z,4.17
2022-09-22T20:09:30.365Z,4.20
2022-09-22T20:11:57.975Z,4.47
2022-09-22T20:14:27.123Z,4.77
2022-09-22T20:16:56.771Z,3.80
2022-09-22T20:19:25.920Z,4.10
2022-09-22T20:22:15.682Z,4.07
2022-09-22T20:24:42.762Z,4.63
2022-09-22T20:27:09.602Z,5.20
2022-09-22T20:29:36.558Z,4.73
2022-09-22T20:32:04.486Z,7.00
2022-09-22T20:34:31.421Z,9.93
2022-09-22T20:36:58.646Z,7.80
2022-09-22T20:39:25.556Z,7.60
2022-09-22T20:41:53.096Z,6.20
2022-09-22T20:44:19.995Z,5.90
2022-09-22T20:46:49.732Z,6.80
2022-09-22T20:49:17.104Z,5.93
2022-09-22T20:51:52.689Z,5.30
2022-09-22T20:54:22.947Z,5.10
2022-09-22T20:56:49.998Z,4.70
2022-09-22T20:59:17.677Z,5.00
2022-09-22T21:04:30.114Z,4.67
2022-09-22T21:06:57.933Z,7.33
2022-09-22T21:09:43.491Z,6.33
2022-09-22T21:12:10.713Z,4.70
2022-09-22T21:14:40.688Z,4.70
2022-09-22T21:17:08.156Z,5.00
2022-09-22T21:19:36.742Z,5.70
2022-09-22T21:22:04.610Z,4.93
2022-09-22T21:24:57.443Z,5.73
2022-09-22T21:27:22.596Z,5.57
2022-09-22T21:29:49.810Z,5.33
2022-09-22T21:32:20.251Z,5.80
2022-09-22T21:34:47.641Z,7.20
2022-09-22T21:37:14.795Z,9.03
2022-09-22T21:39:41.740Z,6.03
2022-09-22T21:42:13.737Z,6.30
2022-09-22T21:45:09.508Z,6.37
2022-09-22T21:47:36.508Z,6.57
2022-09-22T21:51:02.393Z,6.10
2022-09-22T21:53:39.686Z,5.80
2022-09-22T21:56:14.831Z,7.00
2022-09-22T21:58:44.796Z,6.33
2022-09-22T22:01:17.519Z,6.23
2022-09-22T22:03:46.360Z,6.20
2022-09-22T22:06:18.986Z,6.30
2022-09-22T22:09:14.147Z,5.67
2022-09-22T22:11:43.897Z,5.47
2022-09-22T22:14:13.114Z,5.23
2022-09-22T22:19:25.984Z,6.03
2022-09-22T22:21:55.613Z,5.50
2022-09-22T22:24:43.133Z,5.40
2022-09-22T22:27:10.924Z,5.17
2022-09-22T22:29:40.231Z,5.57
2022-09-22T22:32:10.513Z,5.57
2022-09-22T22:37:22.251Z,5.93
2022-09-22T22:39:55.144Z,5.73
2022-09-22T22:42:22.101Z,5.90
2022-09-22T22:44:49.187Z,6.70
2022-09-22T22:47:17.287Z,6.70
2022-09-22T22:49:44.175Z,7.03
2022-09-22T22:52:11.263Z,6.60
2022-09-22T22:54:39.520Z,6.70
2022-09-22T22:57:06.673Z,6.80
2022-09-22T22:59:33.794Z,7.40
2022-09-22T23:02:01.005Z,7.20
2022-09-22T23:04:27.924Z,7.83
2022-09-22T23:06:54.770Z,6.77
2022-09-22T23:09:21.677Z,6.87
2022-09-22T23:11:48.767Z,6.33
2022-09-22T23:14:16.382Z,7.57
2022-09-22T23:16:46.585Z,6.63
2022-09-22T23:19:18.129Z,7.20
2022-09-22T23:21:46.028Z,7.10
2022-09-22T23:24:19.191Z,7.60
2022-09-22T23:26:56.119Z,6.93
2022-09-22T23:29:23.038Z,7.37
2022-09-22T23:31:50.478Z,7.30
2022-09-22T23:34:17.382Z,7.53
2022-09-22T23:36:45.271Z,6.90
2022-09-22T23:39:17.549Z,7.10
2022-09-22T23:41:44.610Z,7.77
2022-09-22T23:44:21.865Z,7.93
2022-09-22T23:46:48.854Z,7.13
2022-09-22T23:49:15.791Z,8.40
2022-09-22T23:51:45.457Z,8.40
2022-09-22T23:54:15.761Z,8.93
2022-09-22T23:56:43.087Z,9.00
2022-09-22T23:59:10.069Z,8.80
